首页
METAR-TAF:

METAR-TAF

机场 :

華雷斯城, 墨西哥

纬度: 31-38N, 经度: 106-26W, 海拔: 1171米

当前天气观测

该预报发布于44分钟前的21:40 UTC
风速11节,风向西南
温度 29°C
湿度 6%
气压 1016 hPa
能見度: 16.1公里
天空无云

METAR: MMCS 172140Z 23011KT 10SM SKC 29/M12 A3000 RMK CI SE

时间: 16:24 (22:24 UTC)

预报

该预报发布于5小时和47分钟前的16:37 UTC
预报有效从17日的 18点(UTC)到 18日的 18点(UTC)
风速10节,风向西转西南
能見度: 10公里
散云层高于25000英尺
短暂存在
从 17日的 22点(UTC)到 18日的 02点(UTC)
风速15节,风向西转西南
从 18日的 0300点(UTC)
风速6节,风向西转西南
能見度: 10公里
天空无云
从 18日的 1600点(UTC)
风速10节,风向西转西南
能見度: 10公里
天空无云

TAF: MMCS 171637Z 1718/1818 25010KT P6SM SCT250 TEMPO 1722/1802 25015KT FM180300 24006KT P6SM SKC FM181600 25010KT P6SM SKC

超过4000个机场的气象观测和天气预报(METAR&TAF报告)。

可查询的气象台以黄色和红色小点在地图上表示。

将鼠标移到小点上方,可查看气象台名称。

然后点击查看天气观测和预报。

如需切换地图:点击带黑十字的绿色按钮放大地图;点击带横线的绿色按钮缩小地图;或者点击绿色箭头查看邻近地区的地图。


METAR-TAF: